Data for 12/09/2012

Time Sea-Level Adjusted Pressure Absolute Pressure Temperature Relative Humidity Dew Point   
(mb) (inHg) (mb) (inHg) (C) (F) (%) (C) (F)
00:05 1020 30.12 849 25.07 -9.5 14.9 88 -11.2 11.8
00:10 1020 30.12 849 25.07 -9.5 14.9 88 -11.2 11.9
00:15 1020 30.12 849 25.07 -9.5 14.9 88 -11.2 11.8
00:20 1020 30.12 849 25.07 -9.5 14.9 88 -11.1 11.9
00:25 1020 30.12 849 25.07 -9.5 14.8 88 -11.2 11.9
00:30 1020 30.12 849 25.07 -9.6 14.8 87 -11.3 11.7
00:35 1020 30.12 849 25.07 -9.7 14.6 88 -11.3 11.6
00:40 1020 30.12 849 25.07 -9.7 14.6 88 -11.3 11.6
00:45 1020 30.12 849 25.07 -9.6 14.6 88 -11.2 11.8
00:50 1020 30.12 849 25.07 -9.6 14.7 88 -11.3 11.7
00:55 1020 30.12 849 25.07 -9.6 14.7 88 -11.2 11.8
01:00 1020 30.12 849 25.07 -9.6 14.7 88 -11.2 11.8
01:05 1020 30.12 849 25.07 -9.6 14.7 88 -11.3 11.7
01:10 1020 30.12 849 25.07 -9.7 14.6 88 -11.4 11.6
01:15 1020 30.12 849 25.07 -9.8 14.5 88 -11.4 11.5
01:20 1020 30.12 849 25.07 -9.8 14.3 88 -11.5 11.3
01:25 1020 30.12 849 25.07 -9.9 14.2 88 -11.5 11.2
01:30 1020 30.12 850 25.1 -9.9 14.2 88 -11.6 11.1
01:35 1020 30.12 850 25.1 -9.9 14.1 87 -11.6 11.1
01:40 1020 30.12 850 25.1 -10 14 88 -11.7 11
01:45 1020 30.12 850 25.1 -10 14.1 88 -11.6 11.1
01:50 1020 30.12 850 25.1 -10 13.9 88 -11.7 11
01:55 1020 30.12 850 25.1 -10.1 13.8 88 -11.7 11
02:00 1020 30.12 850 25.1 -10.1 13.8 88 -11.7 11
02:05 1020 30.12 850 25.1 -10.1 13.8 88 -11.7 10.9
02:10 1020 30.12 850 25.1 -10.2 13.7 88 -11.8 10.8
02:15 1020 30.12 850 25.1 -10.2 13.6 88 -11.8 10.7
02:20 1021 30.15 850 25.1 -10.3 13.5 88 -12 10.4
02:25 1021 30.15 850 25.1 -10.4 13.3 87 -12.1 10.2
02:30 1021 30.15 850 25.1 -10.4 13.3 87 -12.2 10.1
02:35 1021 30.15 850 25.1 -10.4 13.2 88 -12.1 10.2
02:40 1021 30.15 850 25.1 -10.4 13.2 88 -12.1 10.2
02:45 1021 30.15 850 25.1 -10.4 13.2 88 -12.1 10.3
02:50 1021 30.15 850 25.1 -10.4 13.3 88 -12.1 10.3
02:55 1021 30.15 850 25.1 -10.4 13.4 88 -12.1 10.3
03:00 1021 30.15 850 25.1 -10.4 13.3 88 -12 10.3
03:05 1021 30.15 850 25.1 -10.4 13.3 88 -12 10.3
03:10 1021 30.15 850 25.1 -10.4 13.3 88 -12 10.4
03:15 1021 30.15 850 25.1 -10.4 13.3 88 -12 10.4
03:20 1021 30.15 850 25.1 -10.4 13.3 88 -12.1 10.3
03:25 1021 30.15 850 25.1 -10.4 13.3 87 -12.1 10.2
03:30 1021 30.15 850 25.1 -10.4 13.2 87 -12.2 10.1
03:35 1021 30.15 850 25.1 -10.4 13.2 87 -12.2 10.1
03:40 1021 30.15 850 25.1 -10.7 12.7 88 -12.3 9.8
03:45 1021 30.15 850 25.1 -10.9 12.3 88 -12.6 9.4
03:50 1021 30.15 850 25.1 -11 12.1 87 -12.8 9
03:55 1021 30.15 850 25.1 -11.2 11.9 87 -12.9 8.8
04:00 1021 30.15 850 25.1 -11.3 11.7 86 -13.2 8.3
04:05 1021 30.15 851 25.13 -11.5 11.4 86 -13.3 8
04:10 1021 30.15 850 25.1 -11.6 11.2 86 -13.5 7.8
04:15 1021 30.15 850 25.1 -11.7 11 85 -13.7 7.4
04:20 1021 30.15 851 25.13 -11.8 10.7 85 -13.8 7.2
04:25 1021 30.15 851 25.13 -12 10.5 86 -13.9 7
04:30 1021 30.15 851 25.13 -12.1 10.2 86 -14 6.8
04:35 1022 30.18 851 25.13 -12.2 10.1 86 -14.1 6.6
04:40 1022 30.18 851 25.13 -12.3 9.9 86 -14.1 6.6
04:45 1021 30.15 851 25.13 -12.3 9.8 87 -14.1 6.5
04:50 1021 30.15 851 25.13 -12.4 9.6 86 -14.3 6.3
04:55 1021 30.15 851 25.13 -12.6 9.3 86 -14.5 5.9
05:00 1021 30.15 851 25.13 -12.9 8.8 86 -14.8 5.4
05:05 1021 30.15 851 25.13 -13.1 8.5 86 -15 5
05:10 1022 30.18 851 25.13 -13.2 8.3 85 -15.1 4.7
05:15 1022 30.18 851 25.13 -13.3 8.1 85 -15.3 4.5
05:20 1022 30.18 851 25.13 -13.3 8 85 -15.3 4.4
05:25 1022 30.18 851 25.13 -13.3 8 86 -15.2 4.6
05:30 1022 30.18 851 25.13 -13.3 8 85 -15.3 4.4
05:35 1022 30.18 851 25.13 -13.4 7.9 85 -15.4 4.4
05:40 1022 30.18 851 25.13 -13.4 7.9 85 -15.5 4.2
05:45 1022 30.18 851 25.13 -13.4 7.9 85 -15.4 4.2
05:50 1022 30.18 851 25.13 -13.4 7.9 85 -15.4 4.2
05:55 1022 30.18 851 25.13 -13.3 8 84 -15.4 4.3
06:00 1022 30.18 851 25.13 -13.3 8.1 85 -15.4 4.4
06:05 1022 30.18 851 25.13 -13.3 8.1 84 -15.4 4.3
06:10 1022 30.18 851 25.13 -13.3 8.1 84 -15.4 4.3
06:15 1022 30.18 851 25.13 -13.1 8.4 84 -15.3 4.4
06:20 1022 30.18 852 25.16 -13.1 8.5 84 -15.2 4.6
06:25 1022 30.18 852 25.16 -13 8.6 84 -15.1 4.7
06:30 1022 30.18 852 25.16 -13 8.5 84 -15.2 4.7
06:35 1022 30.18 852 25.16 -13.2 8.3 85 -15.2 4.6
06:40 1022 30.18 852 25.16 -13.3 8.1 85 -15.2 4.6
06:45 1023 30.21 852 25.16 -13.3 8 85 -15.3 4.5
06:50 1022 30.18 852 25.16 -13.3 8.1 86 -15.2 4.6
06:55 1023 30.21 852 25.16 -13.3 8 85 -15.3 4.4
07:00 1023 30.21 852 25.16 -13.4 7.9 85 -15.5 4.1
07:05 1023 30.21 852 25.16 -13.5 7.7 86 -15.4 4.3
07:10 1023 30.21 852 25.16 -13.6 7.6 85 -15.5 4.1
07:15 1023 30.21 852 25.16 -13.5 7.6 85 -15.5 4
07:20 1023 30.21 852 25.16 -13.6 7.6 85 -15.6 3.9
07:25 1023 30.21 852 25.16 -13.6 7.5 85 -15.6 3.8
07:30 1023 30.21 852 25.16 -13.6 7.5 84 -15.7 3.7
07:35 1023 30.21 852 25.16 -13.6 7.5 84 -15.7 3.7
07:40 1023 30.21 852 25.16 -13.6 7.6 84 -15.8 3.6
07:45 1023 30.21 852 25.16 -13.7 7.4 84 -15.8 3.5
07:50 1023 30.21 852 25.16 -13.9 7.1 85 -15.8 3.5
07:55 1023 30.21 852 25.16 -13.9 7 86 -15.8 3.6
08:00 1023 30.21 852 25.16 -13.9 7 86 -15.8 3.6
08:05 1023 30.21 852 25.16 -13.8 7.2 85 -15.9 3.5
08:10 1023 30.21 852 25.16 -13.9 7 85 -15.9 3.4
08:15 1023 30.21 852 25.16 -14.1 6.7 85 -16 3.1
08:20 1023 30.21 852 25.16 -14.3 6.2 86 -16.2 2.8
08:25 1023 30.21 852 25.16 -14.5 5.8 87 -16.3 2.6
08:30 1023 30.21 852 25.16 -14.6 5.8 86 -16.5 2.4
08:35 1023 30.21 852 25.16 -14.6 5.7 85 -16.6 2.2
08:40 1023 30.21 852 25.16 -14.8 5.5 85 -16.8 1.8
08:45 1023 30.21 852 25.16 -14.8 5.3 87 -16.6 2.2
08:50 1023 30.21 853 25.19 -14.7 5.6 87 -16.4 2.5
08:55 1023 30.21 853 25.19 -14.5 5.9 87 -16.3 2.7
09:00 1024 30.24 853 25.19 -14.4 6.1 87 -16.1 3
09:05 1024 30.24 853 25.19 -14.1 6.5 87 -15.9 3.3
09:10 1023 30.21 853 25.19 -14.2 6.5 83 -16.5 2.3
09:15 1023 30.21 853 25.19 -14.6 5.8 85 -16.5 2.3
09:20 1024 30.24 853 25.19 -14.6 5.7 85 -16.6 2.1
09:25 1024 30.24 853 25.19 -14.7 5.5 84 -16.9 1.7
09:30 1024 30.24 853 25.19 -14.4 6 81 -17 1.4
09:35 1024 30.24 853 25.19 -14.1 6.7 80 -16.8 1.8
09:40 1024 30.24 853 25.19 -13.9 7 77 -17.2 1.1
09:45 1024 30.24 853 25.19 -13.9 7 78 -17 1.4
09:50 1024 30.24 853 25.19 -13.6 7.6 75 -17.1 1.3
09:55 1024 30.24 853 25.19 -13.7 7.4 77 -16.9 1.7
10:00 1024 30.24 853 25.19 -13.5 7.7 76 -16.9 1.6
10:05 1024 30.24 853 25.19 -13.2 8.3 75 -16.8 1.8
10:10 1024 30.24 853 25.19 -13.1 8.3 74 -16.9 1.7
10:15 1024 30.24 853 25.19 -13 8.5 74 -16.8 1.7
10:20 1024 30.24 853 25.19 -12.8 9 74 -16.5 2.2
10:25 1024 30.24 854 25.22 -12.7 9.2 75 -16.3 2.7
10:30 1024 30.24 854 25.22 -13 8.7 75 -16.5 2.2
10:35 1024 30.24 854 25.22 -13.1 8.4 76 -16.6 2.2
10:40 1024 30.24 854 25.22 -13.4 7.8 78 -16.5 2.3
10:45 1024 30.24 854 25.22 -13.3 8 76 -16.7 1.9
10:50 1024 30.24 854 25.22 -13.3 8.1 75 -16.7 1.9
10:55 1025 30.27 854 25.22 -13.2 8.2 75 -16.7 1.9
11:00 1025 30.27 854 25.22 -13.6 7.6 77 -16.8 1.7
11:05 1025 30.27 854 25.22 -14 6.9 79 -16.9 1.5
11:10 1025 30.27 854 25.22 -13.8 7.1 79 -16.8 1.8
11:15 1025 30.27 854 25.22 -13.1 8.4 74 -16.9 1.6
11:20 1025 30.27 854 25.22 -13 8.6 75 -16.5 2.3
11:25 1025 30.27 854 25.22 -13.6 7.6 78 -16.7 2
11:30 1025 30.27 854 25.22 -12.8 8.9 73 -16.8 1.8
11:35 1025 30.27 854 25.22 -12.5 9.6 72 -16.5 2.3
11:40 1024 30.24 854 25.22 -12.4 9.6 73 -16.4 2.5
11:45 1024 30.24 853 25.19 -11.9 10.6 71 -16.1 3
11:50 1024 30.24 853 25.19 -11.6 11.2 71 -15.9 3.4
11:55 1024 30.24 853 25.19 -11 12.2 68 -15.8 3.6
12:00 1024 30.24 853 25.19 -10.4 13.2 67 -15.5 4.1
12:05 1024 30.24 853 25.19 -10.4 13.2 67 -15.4 4.3
12:10 1024 30.24 853 25.19 -10.9 12.4 69 -15.4 4.2
12:15 1024 30.24 853 25.19 -10.7 12.8 67 -15.6 3.9
12:20 1023 30.21 853 25.19 -9.9 14.2 64 -15.5 4.2
12:25 1023 30.21 853 25.19 -9.1 15.6 62 -15.1 4.8
12:30 1023 30.21 852 25.16 -9 15.9 61 -15.2 4.7
12:35 1023 30.21 852 25.16 -8.5 16.7 60 -15 5
12:40 1023 30.21 852 25.16 -8.5 16.7 61 -14.7 5.5
12:45 1023 30.21 852 25.16 -8.6 16.6 61 -14.7 5.5
12:50 1023 30.21 852 25.16 -8.2 17.2 60 -14.6 5.7
12:55 1023 30.21 852 25.16 -7.9 17.7 59 -14.7 5.6
13:00 1023 30.21 852 25.16 -7.6 18.4 59 -14.3 6.3
13:05 1023 30.21 852 25.16 -7.9 17.8 60 -14.3 6.3
13:10 1023 30.21 852 25.16 -7.5 18.5 60 -14.1 6.7
13:15 1023 30.21 852 25.16 -7.4 18.7 60 -13.9 7
13:20 1023 30.21 852 25.16 -6.8 19.8 57 -13.9 7
13:25 1023 30.21 852 25.16 -6.4 20.6 56 -13.8 7.2
13:30 1023 30.21 852 25.16 -6.6 20.2 58 -13.6 7.6
13:35 1023 30.21 852 25.16 -6.8 19.8 59 -13.6 7.6
13:40 1023 30.21 852 25.16 -7 19.4 62 -13.1 8.4
13:45 1023 30.21 852 25.16 -7.7 18.2 62 -13.7 7.4
13:50 1023 30.21 852 25.16 -7.7 18.2 63 -13.5 7.7
13:55 1022 30.18 852 25.16 -7.7 18.2 63 -13.6 7.5
14:00 1022 30.18 851 25.13 -7.7 18.1 61 -13.9 6.9
14:05 1022 30.18 851 25.13 -7.7 18.2 61 -13.9 7
14:10 1022 30.18 851 25.13 -7.3 18.9 60 -13.7 7.3
14:15 1022 30.18 851 25.13 -7.8 18 62 -13.8 7.2
14:20 1022 30.18 851 25.13 -8.2 17.2 63 -14 6.8
14:25 1022 30.18 851 25.13 -8.3 17.1 64 -14 6.8
14:30 1022 30.18 851 25.13 -9 15.8 66 -14.3 6.3
14:35 1022 30.18 851 25.13 -9.1 15.7 67 -14.2 6.5
14:40 1022 30.18 851 25.13 -8.7 16.4 64 -14.3 6.2
14:45 1021 30.15 851 25.13 -8.5 16.7 64 -14.2 6.4
14:50 1021 30.15 851 25.13 -8.3 17.2 62 -14.4 6.1
14:55 1021 30.15 851 25.13 -8.1 17.5 62 -14.1 6.6
15:00 1021 30.15 850 25.1 -8.2 17.2 62 -14.2 6.4
15:05 1021 30.15 850 25.1 -8.4 16.9 64 -14 6.9
15:10 1021 30.15 850 25.1 -8.6 16.5 64 -14.3 6.3
15:15 1021 30.15 850 25.1 -8.4 16.9 64 -14 6.7
15:20 1021 30.15 850 25.1 -8.5 16.8 64 -14 6.8
15:25 1021 30.15 850 25.1 -8.3 17 63 -14.1 6.6
15:30 1021 30.15 850 25.1 -8.3 17 64 -14 6.8
15:35 1021 30.15 850 25.1 -8.6 16.5 65 -14.1 6.6
15:40 1021 30.15 850 25.1 -8.6 16.5 65 -14 6.8
15:45 1021 30.15 850 25.1 -9 15.9 67 -14.1 6.6
15:50 1021 30.15 850 25.1 -9.5 14.8 68 -14.3 6.3
15:55 1021 30.15 850 25.1 -9.5 14.8 69 -14.3 6.3
16:00 1021 30.15 850 25.1 -9.6 14.8 68 -14.4 6
16:05 1021 30.15 850 25.1 -9.9 14.2 70 -14.3 6.2
16:10 1020 30.12 850 25.1 -9.7 14.6 67 -14.8 5.4
16:15 1020 30.12 850 25.1 -9.5 15 67 -14.6 5.7
16:20 1020 30.12 849 25.07 -9.1 15.7 65 -14.6 5.8
16:25 1020 30.12 849 25.07 -8.6 16.5 62 -14.7 5.5
16:30 1020 30.12 849 25.07 -8.3 17.2 60 -14.6 5.7
16:35 1020 30.12 849 25.07 -8.3 17.1 62 -14.4 6.1
16:40 1020 30.12 850 25.1 -8.7 16.4 62 -14.7 5.6
16:45 1020 30.12 849 25.07 -8.7 16.4 64 -14.2 6.4
16:50 1020 30.12 849 25.07 -8.4 16.8 61 -14.6 5.7
16:55 1020 30.12 849 25.07 -8.5 16.7 62 -14.6 5.8
17:00 1020 30.12 849 25.07 -8.3 17.1 61 -14.4 6
17:05 1020 30.12 849 25.07 -8.3 17.1 60 -14.8 5.4
17:10 1020 30.12 849 25.07 -8.5 16.7 61 -14.7 5.5
17:15 1020 30.12 849 25.07 -8.4 16.9 62 -14.4 6.1
17:20 1020 30.12 849 25.07 -8.4 16.9 64 -14.1 6.6
17:25 1020 30.12 849 25.07 -8.4 16.9 63 -14.2 6.4
17:30 1019 30.09 849 25.07 -8.5 16.7 65 -13.9 6.9
17:35 1019 30.09 849 25.07 -8.9 16 68 -13.8 7.1
17:40 1019 30.09 848 25.04 -8.9 16.1 67 -13.9 7
17:45 1019 30.09 848 25.04 -9 15.9 68 -13.8 7.1
17:50 1019 30.09 849 25.07 -9.1 15.7 66 -14.3 6.2
17:55 1019 30.09 849 25.07 -9.1 15.6 67 -14.2 6.4
18:00 1019 30.09 849 25.07 -9.1 15.6 67 -14.1 6.6
18:05 1019 30.09 849 25.07 -8.8 16.1 65 -14.3 6.2
18:10 1019 30.09 849 25.07 -8.6 16.6 63 -14.5 5.9
18:15 1019 30.09 848 25.04 -8.4 17 61 -14.6 5.7
18:20 1019 30.09 848 25.04 -8.3 17 60 -14.8 5.4
18:25 1019 30.09 848 25.04 -8.4 16.9 61 -14.6 5.7
18:30 1019 30.09 848 25.04 -8.7 16.3 62 -14.7 5.5
18:35 1019 30.09 848 25.04 -8.6 16.6 61 -14.7 5.5
18:40 1019 30.09 848 25.04 -8.4 16.8 58 -15.3 4.4
18:45 1019 30.09 848 25.04 -8.5 16.7 60 -15 5
18:50 1019 30.09 848 25.04 -8.4 17 61 -14.6 5.6
18:55 1019 30.09 848 25.04 -8.5 16.8 65 -13.9 7
19:00 1019 30.09 848 25.04 -8.6 16.5 65 -14.1 6.6
19:05 1019 30.09 848 25.04 -8.3 17 63 -14.3 6.3
19:10 1019 30.09 848 25.04 -8.3 17 63 -14.2 6.4
19:15 1019 30.09 848 25.04 -8.5 16.6 65 -14 6.9
19:20 1019 30.09 848 25.04 -8.5 16.7 62 -14.6 5.7
19:25 1019 30.09 848 25.04 -8.3 17 61 -14.5 5.8
19:30 1019 30.09 848 25.04 -8.2 17.3 60 -14.5 5.8
19:35 1019 30.09 848 25.04 -8 17.6 61 -14.3 6.3
19:40 1019 30.09 848 25.04 -8.1 17.5 62 -14.1 6.6
19:45 1019 30.09 848 25.04 -8.1 17.3 61 -14.3 6.2
19:50 1019 30.09 848 25.04 -8.2 17.2 60 -14.7 5.5
19:55 1019 30.09 848 25.04 -8.2 17.3 61 -14.4 6
20:00 1019 30.09 848 25.04 -8.1 17.4 60 -14.6 5.8
20:05 1019 30.09 848 25.04 -8.3 17 60 -14.7 5.6
20:10 1019 30.09 848 25.04 -8.1 17.5 56 -15.4 4.3
20:15 1019 30.09 848 25.04 -7.7 18.1 55 -15.3 4.4
20:20 1019 30.09 848 25.04 -7.6 18.3 54 -15.4 4.2
20:25 1018 30.06 848 25.04 -7.7 18.2 55 -15.3 4.5
20:30 1018 30.06 848 25.04 -7.9 17.8 57 -15.1 4.9
20:35 1018 30.06 848 25.04 -8 17.6 59 -14.7 5.6
20:40 1018 30.06 847 25.01 -7.8 18 59 -14.4 6.1
20:45 1018 30.06 847 25.01 -7.9 17.9 58 -14.7 5.6
20:50 1018 30.06 847 25.01 -8 17.5 58 -14.9 5.2
20:55 1018 30.06 847 25.01 -8 17.5 59 -14.7 5.6
21:00 1018 30.06 847 25.01 -7.8 18 58 -14.7 5.5
21:05 1018 30.06 847 25.01 -7.7 18.1 57 -14.8 5.4
21:10 1018 30.06 847 25.01 -8 17.7 60 -14.5 5.9
21:15 1018 30.06 847 25.01 -7.7 18.1 56 -15.1 4.8
21:20 1018 30.06 847 25.01 -7.4 18.8 53 -15.4 4.3
21:25 1018 30.06 847 25.01 -7.1 19.2 54 -14.9 5.1
21:30 1018 30.06 847 25.01 -7 19.5 52 -15.3 4.4
21:35 1018 30.06 847 25.01 -6.9 19.7 52 -15 4.9
21:40 1018 30.06 847 25.01 -6.9 19.5 57 -14.1 6.7
21:45 1018 30.06 847 25.01 -7.3 18.9 57 -14.4 6.1
21:50 1018 30.06 847 25.01 -7.1 19.2 56 -14.4 6
21:55 1018 30.06 847 25.01 -7.2 19.1 56 -14.6 5.8
22:00 1018 30.06 847 25.01 -7.2 19.1 55 -14.8 5.4
22:05 1018 30.06 847 25.01 -7.2 19.1 56 -14.5 5.9
22:10 1018 30.06 847 25.01 -7.2 19 55 -14.9 5.2
22:15 1018 30.06 847 25.01 -7.2 19 57 -14.4 6
22:20 1018 30.06 847 25.01 -7.3 18.8 56 -14.7 5.5
22:25 1018 30.06 847 25.01 -7.4 18.8 58 -14.3 6.2
22:30 1018 30.06 847 25.01 -7.3 18.9 57 -14.5 5.9
22:35 1018 30.06 847 25.01 -7.2 19.1 58 -14.1 6.7
22:40 1018 30.06 847 25.01 -7.1 19.2 58 -14.1 6.6
22:45 1018 30.06 847 25.01 -7.2 19.1 57 -14.4 6.1
22:50 1017 30.03 847 25.01 -7.1 19.3 58 -14.1 6.6
22:55 1017 30.03 847 25.01 -7 19.3 54 -14.8 5.3
23:00 1017 30.03 847 25.01 -7.1 19.3 57 -14.2 6.5
23:05 1017 30.03 847 25.01 -7.1 19.1 64 -12.9 8.7
23:10 1017 30.03 847 25.01 -7.3 18.8 66 -12.5 9.4
23:15 1017 30.03 846 24.98 -7.2 19.1 64 -12.8 8.9
23:20 1017 30.03 846 24.98 -7.2 19 66 -12.6 9.4
23:25 1017 30.03 846 24.98 -7.3 19 61 -13.5 7.6
23:30 1017 30.03 846 24.98 -7.1 19.2 64 -12.8 9
23:35 1017 30.03 847 25.01 -7.1 19.1 60 -13.6 7.6
23:40 1017 30.03 847 25.01 -7.1 19.2 61 -13.5 7.8
23:45 1017 30.03 847 25.01 -7 19.4 60 -13.4 7.8
23:50 1017 30.03 847 25.01 -6.8 19.7 62 -13 8.7
23:55 1017 30.03 847 25.01 -6.8 19.8 59 -13.5 7.6
24:00 1017 30.03 846 24.98 -6.7 19.9 58 -13.7 7.4